Time;durP1;ratioP1;P1;durP2;ratioP2;P2;SDS_P1;SDS_P2;PMS_P1;PMS_P2;Temp;Humidity;BMP_temperature;BMP_pressure;BME280_temperature;BME280_humidity;BME280_pressure;Samples;Min_cycle;Max_cycle;Signal;HPM_P1;HPM_P2
2020/12/30 00:00:11;;;;;;;6.57;3.67;;;;;;;;;;6161872;23;20328;-85
2020/12/30 00:02:38;;;;;;;6.57;3.88;;;;;;;;;;6160254;23;20021;-85
2020/12/30 00:05:05;;;;;;;7.80;4.32;;;;;;;;;;6159876;23;20072;-85
2020/12/30 00:07:32;;;;;;;6.75;4.43;;;;;;;;;;6160988;23;20632;-85
2020/12/30 00:09:59;;;;;;;7.38;4.47;;;;;;;;;;6157807;23;20028;-85
2020/12/30 00:12:27;;;;;;;6.25;3.40;;;;;;;;;;6157930;23;20021;-86
2020/12/30 00:14:54;;;;;;;5.93;3.50;;;;;;;;;;6157321;23;20029;-86
2020/12/30 00:17:20;;;;;;;6.13;3.90;;;;;;;;;;6157897;23;20432;-85
2020/12/30 00:19:46;;;;;;;6.13;3.65;;;;;;;;;;6158465;23;20022;-85
2020/12/30 00:22:12;;;;;;;8.13;3.90;;;;;;;;;;6158450;23;20021;-85
2020/12/30 00:24:39;;;;;;;6.25;3.75;;;;;;;;;;6158471;23;20339;-85
2020/12/30 00:27:05;;;;;;;6.43;3.55;;;;;;;;;;6157623;23;20443;-85
2020/12/30 00:29:32;;;;;;;6.25;3.38;;;;;;;;;;6158093;23;20033;-84
2020/12/30 00:31:58;;;;;;;6.93;3.00;;;;;;;;;;6157977;23;20017;-84
2020/12/30 00:34:24;;;;;;;5.78;3.45;;;;;;;;;;6157858;23;20076;-85
2020/12/30 00:36:50;;;;;;;5.93;2.90;;;;;;;;;;6158646;23;20032;-85
2020/12/30 00:39:16;;;;;;;5.35;2.83;;;;;;;;;;6158225;23;20022;-85
2020/12/30 00:41:42;;;;;;;4.30;2.78;;;;;;;;;;6159233;23;20071;-85
2020/12/30 00:44:09;;;;;;;4.05;2.55;;;;;;;;;;6158021;23;20068;-85
2020/12/30 00:46:35;;;;;;;4.95;2.75;;;;;;;;;;6158542;23;20358;-85
2020/12/30 00:49:01;;;;;;;5.22;2.70;;;;;;;;;;6157618;23;20025;-84
2020/12/30 00:51:28;;;;;;;6.53;3.10;;;;;;;;;;6158139;23;20096;-85
2020/12/30 00:53:54;;;;;;;6.28;2.78;;;;;;;;;;6158133;23;20033;-85
2020/12/30 00:56:20;;;;;;;6.22;2.78;;;;;;;;;;6157668;23;20029;-85
2020/12/30 00:58:46;;;;;;;5.55;3.67;;;;;;;;;;6158171;23;20029;-85
2020/12/30 01:01:13;;;;;;;7.80;3.80;;;;;;;;;;6158245;23;20092;-85
2020/12/30 01:03:39;;;;;;;7.45;4.22;;;;;;;;;;6159141;23;20022;-85
2020/12/30 01:06:06;;;;;;;6.65;4.05;;;;;;;;;;6160162;23;20025;-85
2020/12/30 01:08:32;;;;;;;5.45;2.78;;;;;;;;;;6160227;23;20022;-84
2020/12/30 01:10:58;;;;;;;5.07;2.60;;;;;;;;;;6160455;23;20343;-85
2020/12/30 01:13:24;;;;;;;6.35;2.92;;;;;;;;;;6160367;23;20029;-84
2020/12/30 01:15:50;;;;;;;4.95;2.60;;;;;;;;;;6160184;23;20100;-84
2020/12/30 01:18:17;;;;;;;6.18;3.55;;;;;;;;;;6159030;23;20025;-84
2020/12/30 01:20:43;;;;;;;9.05;3.70;;;;;;;;;;6158921;23;20025;-84
2020/12/30 01:23:09;;;;;;;5.72;2.47;;;;;;;;;;6159103;23;20312;-84
2020/12/30 01:25:35;;;;;;;5.25;3.28;;;;;;;;;;6158684;23;20076;-84
2020/12/30 01:28:01;;;;;;;4.43;2.70;;;;;;;;;;6158731;23;20442;-83
2020/12/30 01:30:27;;;;;;;6.38;2.97;;;;;;;;;;6159184;23;20485;-84
2020/12/30 01:32:53;;;;;;;3.95;2.38;;;;;;;;;;6158777;23;20073;-83
2020/12/30 01:35:20;;;;;;;5.85;3.20;;;;;;;;;;6158364;23;20025;-84
2020/12/30 01:37:46;;;;;;;9.23;3.45;;;;;;;;;;6158619;23;20100;-85
2020/12/30 01:40:12;;;;;;;5.45;3.05;;;;;;;;;;6158114;23;20018;-83
2020/12/30 01:42:44;;;;;;;6.50;2.95;;;;;;;;;;6158556;23;20342;-83
2020/12/30 01:45:10;;;;;;;4.93;3.20;;;;;;;;;;6158180;23;20021;-84
2020/12/30 01:47:36;;;;;;;6.47;3.22;;;;;;;;;;6158826;23;20339;-84
2020/12/30 01:50:03;;;;;;;7.10;2.90;;;;;;;;;;6158422;23;20028;-83
2020/12/30 01:52:31;;;;;;;8.93;3.50;;;;;;;;;;6157874;23;20629;-83
2020/12/30 01:54:57;;;;;;;6.60;2.83;;;;;;;;;;6158826;23;20025;-83
2020/12/30 01:57:23;;;;;;;5.70;3.17;;;;;;;;;;6158086;23;20028;-82
2020/12/30 01:59:49;;;;;;;7.15;3.40;;;;;;;;;;6158368;23;20017;-83
2020/12/30 02:02:15;;;;;;;6.72;3.53;;;;;;;;;;6158492;23;20022;-84
2020/12/30 02:04:45;;;;;;;4.28;2.20;;;;;;;;;;6184376;23;20024;-84
2020/12/30 02:07:11;;;;;;;6.05;3.15;;;;;;;;;;6191450;23;20013;-84
2020/12/30 02:09:40;;;;;;;5.95;3.45;;;;;;;;;;6165645;23;20303;-84
2020/12/30 02:12:07;;;;;;;4.68;2.80;;;;;;;;;;6191482;23;20438;-84
2020/12/30 02:14:33;;;;;;;4.28;2.55;;;;;;;;;;6164913;23;20013;-83
2020/12/30 02:16:59;;;;;;;5.55;3.08;;;;;;;;;;6190036;23;20024;-83
2020/12/30 02:19:25;;;;;;;5.05;2.72;;;;;;;;;;6165352;23;20017;-83
2020/12/30 02:21:54;;;;;;;5.53;2.80;;;;;;;;;;6165772;23;20067;-84
2020/12/30 02:24:25;;;;;;;7.32;3.13;;;;;;;;;;6164189;23;20017;-84
2020/12/30 02:26:51;;;;;;;4.30;2.40;;;;;;;;;;6191055;23;20013;-84
2020/12/30 02:29:17;;;;;;;4.70;2.70;;;;;;;;;;6190404;23;20287;-86
2020/12/30 02:31:43;;;;;;;8.85;4.13;;;;;;;;;;6190619;23;20330;-83
2020/12/30 02:34:09;;;;;;;5.65;3.40;;;;;;;;;;6164444;23;20073;-83
2020/12/30 02:36:35;;;;;;;4.88;2.85;;;;;;;;;;6191303;23;20412;-83
2020/12/30 02:39:01;;;;;;;7.20;3.75;;;;;;;;;;6139704;23;20442;-86
2020/12/30 02:41:28;;;;;;;5.22;2.90;;;;;;;;;;6140395;23;20028;-84
2020/12/30 02:43:54;;;;;;;7.25;4.18;;;;;;;;;;6190940;23;20017;-84
2020/12/30 02:46:20;;;;;;;5.85;3.10;;;;;;;;;;6189859;23;20079;-84
2020/12/30 02:48:46;;;;;;;5.53;2.95;;;;;;;;;;6188483;23;20040;-84
2020/12/30 02:51:12;;;;;;;7.03;3.15;;;;;;;;;;6190508;23;20448;-84
2020/12/30 02:53:38;;;;;;;5.53;2.55;;;;;;;;;;6162493;23;20043;-86
2020/12/30 02:56:04;;;;;;;4.75;2.17;;;;;;;;;;6165545;23;20013;-83
2020/12/30 02:58:31;;;;;;;6.32;2.60;;;;;;;;;;6139653;23;20326;-85
2020/12/30 03:00:57;;;;;;;6.78;3.05;;;;;;;;;;6164052;23;20041;-83
2020/12/30 03:03:24;;;;;;;5.95;2.70;;;;;;;;;;6164477;23;20024;-85
2020/12/30 03:05:51;;;;;;;5.85;2.75;;;;;;;;;;6189657;23;20013;-83
2020/12/30 03:08:17;;;;;;;4.75;2.50;;;;;;;;;;6165567;23;20013;-85
2020/12/30 03:10:43;;;;;;;4.93;3.00;;;;;;;;;;6188823;23;20017;-85
2020/12/30 03:13:09;;;;;;;4.65;2.92;;;;;;;;;;6164386;23;20021;-83
2020/12/30 03:15:36;;;;;;;5.32;2.90;;;;;;;;;;6191141;23;20355;-86
2020/12/30 03:18:02;;;;;;;5.05;2.70;;;;;;;;;;6188104;23;20325;-85
2020/12/30 03:20:28;;;;;;;8.38;3.33;;;;;;;;;;6186626;23;20013;-83
2020/12/30 03:22:54;;;;;;;6.15;3.22;;;;;;;;;;6189980;23;20330;-85
2020/12/30 03:25:20;;;;;;;7.05;3.15;;;;;;;;;;6187228;23;20009;-85
2020/12/30 03:27:46;;;;;;;5.25;2.75;;;;;;;;;;6187097;23;20021;-85
2020/12/30 03:30:12;;;;;;;4.38;2.75;;;;;;;;;;6187744;23;20024;-85
2020/12/30 03:32:39;;;;;;;5.28;3.45;;;;;;;;;;6186276;23;20022;-85
2020/12/30 03:35:05;;;;;;;7.45;2.90;;;;;;;;;;6186180;23;20017;-84
2020/12/30 03:37:32;;;;;;;7.50;3.00;;;;;;;;;;6187535;23;20052;-86
2020/12/30 03:39:58;;;;;;;6.60;3.13;;;;;;;;;;6187308;23;20040;-83
2020/12/30 03:42:24;;;;;;;4.32;2.50;;;;;;;;;;6187162;23;20017;-86
2020/12/30 03:44:50;;;;;;;6.13;3.22;;;;;;;;;;6187202;23;20326;-85
2020/12/30 03:47:16;;;;;;;7.00;3.20;;;;;;;;;;6187350;23;20020;-83
2020/12/30 03:49:42;;;;;;;6.50;3.67;;;;;;;;;;6187234;23;20017;-83
2020/12/30 03:52:08;;;;;;;7.65;3.65;;;;;;;;;;6187860;23;20013;-86
2020/12/30 03:54:34;;;;;;;6.35;3.22;;;;;;;;;;6187474;23;20013;-84
2020/12/30 03:57:00;;;;;;;5.50;2.80;;;;;;;;;;6187422;23;20012;-83
2020/12/30 03:59:26;;;;;;;8.70;4.03;;;;;;;;;;6187359;23;20037;-83
2020/12/30 04:01:52;;;;;;;10.60;5.30;;;;;;;;;;6187209;23;20024;-83
2020/12/30 04:04:18;;;;;;;8.80;4.82;;;;;;;;;;6187682;23;20028;-84
2020/12/30 04:06:45;;;;;;;8.02;5.00;;;;;;;;;;6160534;23;20093;-85
2020/12/30 04:09:11;;;;;;;9.20;5.28;;;;;;;;;;6187195;23;20013;-84
2020/12/30 04:11:37;;;;;;;7.63;4.25;;;;;;;;;;6186951;23;20028;-86
2020/12/30 04:14:03;;;;;;;7.00;3.50;;;;;;;;;;6187033;23;20074;-86
2020/12/30 04:16:29;;;;;;;8.02;3.88;;;;;;;;;;6186860;23;20013;-84
2020/12/30 04:18:55;;;;;;;6.35;3.78;;;;;;;;;;6186752;23;20013;-86
2020/12/30 04:21:21;;;;;;;11.85;5.97;;;;;;;;;;6186849;23;20326;-83
2020/12/30 04:23:48;;;;;;;7.78;4.95;;;;;;;;;;6187150;23;20017;-83
2020/12/30 04:26:14;;;;;;;7.75;4.35;;;;;;;;;;6187776;23;20017;-84
2020/12/30 04:28:40;;;;;;;6.93;3.80;;;;;;;;;;6187351;23;20027;-84
2020/12/30 04:31:09;;;;;;;8.98;3.85;;;;;;;;;;6187485;23;20017;-86
2020/12/30 04:33:35;;;;;;;6.25;2.88;;;;;;;;;;6186933;23;20025;-86
2020/12/30 04:36:01;;;;;;;5.75;3.22;;;;;;;;;;6188192;23;20064;-84
2020/12/30 04:38:27;;;;;;;5.43;3.10;;;;;;;;;;6190264;23;20016;-84
2020/12/30 04:40:56;;;;;;;6.80;2.90;;;;;;;;;;6189595;23;20017;-84
2020/12/30 04:43:24;;;;;;;6.03;3.00;;;;;;;;;;6188593;23;20013;-83
2020/12/30 04:45:50;;;;;;;4.65;2.72;;;;;;;;;;6163501;23;20071;-86
2020/12/30 04:48:16;;;;;;;7.18;3.17;;;;;;;;;;6188048;23;20013;-86
2020/12/30 04:50:42;;;;;;;5.95;3.38;;;;;;;;;;6187888;23;20017;-83
2020/12/30 04:53:09;;;;;;;5.75;2.53;;;;;;;;;;6162416;23;20017;-85
2020/12/30 04:55:36;;;;;;;3.90;2.30;;;;;;;;;;6162599;23;20020;-86
2020/12/30 04:58:07;;;;;;;5.35;2.90;;;;;;;;;;6162742;23;20013;-86
2020/12/30 05:00:34;;;;;;;5.47;3.15;;;;;;;;;;6164314;23;20013;-83
2020/12/30 05:03:05;;;;;;;5.65;3.50;;;;;;;;;;6188955;23;20013;-86
2020/12/30 05:05:34;;;;;;;7.28;3.35;;;;;;;;;;6185989;23;20017;-83
2020/12/30 05:08:00;;;;;;;7.00;3.33;;;;;;;;;;6185594;23;20040;-83
2020/12/30 05:10:26;;;;;;;4.47;2.72;;;;;;;;;;6186203;23;20061;-83
2020/12/30 05:12:54;;;;;;;4.13;3.00;;;;;;;;;;6185714;23;20028;-86
2020/12/30 05:15:21;;;;;;;6.43;3.08;;;;;;;;;;6186032;23;20021;-86
2020/12/30 05:17:47;;;;;;;4.43;2.97;;;;;;;;;;6186182;23;20021;-83
2020/12/30 05:20:13;;;;;;;6.35;3.15;;;;;;;;;;6186428;23;20020;-83
2020/12/30 05:22:40;;;;;;;5.55;3.22;;;;;;;;;;6185932;23;20021;-83
2020/12/30 05:25:07;;;;;;;5.90;3.47;;;;;;;;;;6162270;23;20430;-83
2020/12/30 05:27:34;;;;;;;8.13;3.58;;;;;;;;;;6187643;23;20013;-83
2020/12/30 05:30:01;;;;;;;9.95;3.13;;;;;;;;;;6185906;23;20013;-83
2020/12/30 05:32:29;;;;;;;7.22;2.97;;;;;;;;;;6187745;23;20476;-83
2020/12/30 05:34:55;;;;;;;5.25;3.03;;;;;;;;;;6135954;23;20450;-83
2020/12/30 05:37:30;;;;;;;5.53;3.05;;;;;;;;;;6138569;23;20014;-85
2020/12/30 05:39:56;;;;;;;7.97;3.60;;;;;;;;;;6192629;23;20024;-86
2020/12/30 05:42:22;;;;;;;6.05;3.45;;;;;;;;;;6191106;23;20017;-86
2020/12/30 05:44:50;;;;;;;7.38;3.00;;;;;;;;;;6165427;23;20009;-85
2020/12/30 05:47:17;;;;;;;4.53;2.80;;;;;;;;;;6190810;23;20013;-86
2020/12/30 05:49:44;;;;;;;4.57;3.22;;;;;;;;;;6193564;23;20063;-86
2020/12/30 05:52:15;;;;;;;5.80;2.80;;;;;;;;;;6193643;23;20021;-86
2020/12/30 05:54:48;;;;;;;5.15;2.85;;;;;;;;;;6167906;23;20024;-85
2020/12/30 05:57:22;;;;;;;4.55;2.67;;;;;;;;;;6193238;23;20430;-86
2020/12/30 05:59:50;;;;;;;9.70;4.22;;;;;;;;;;6193662;23;20035;-86
2020/12/30 06:02:18;;;;;;;13.85;7.95;;;;;;;;;;6194408;23;20013;-86
2020/12/30 06:04:45;;;;;;;9.07;4.30;;;;;;;;;;6193352;23;20028;-86
2020/12/30 06:07:17;;;;;;;7.60;4.07;;;;;;;;;;6117989;23;20028;-85
2020/12/30 06:09:50;;;;;;;6.40;4.05;;;;;;;;;;6193560;23;20013;-85
2020/12/30 06:12:25;;;;;;;10.07;5.38;;;;;;;;;;6192322;23;20075;-86
2020/12/30 06:14:52;;;;;;;8.13;4.40;;;;;;;;;;6192923;23;20457;-86
2020/12/30 06:17:28;;;;;;;9.60;5.22;;;;;;;;;;6165522;23;20036;-86
2020/12/30 06:19:55;;;;;;;8.35;4.85;;;;;;;;;;6191018;23;20013;-85
2020/12/30 06:22:22;;;;;;;8.10;4.05;;;;;;;;;;6191342;23;20024;-85
2020/12/30 06:24:52;;;;;;;9.13;4.68;;;;;;;;;;6193274;23;20024;-86
2020/12/30 06:27:25;;;;;;;9.70;4.20;;;;;;;;;;6193051;23;20446;-86
2020/12/30 06:29:53;;;;;;;8.32;4.47;;;;;;;;;;6192105;23;20357;-85
2020/12/30 06:32:30;;;;;;;8.02;4.70;;;;;;;;;;6193472;23;20028;-85
2020/12/30 06:34:59;;;;;;;6.88;4.25;;;;;;;;;;6194162;23;20044;-85
2020/12/30 06:37:29;;;;;;;8.10;4.22;;;;;;;;;;6192589;23;20017;-86
2020/12/30 06:40:18;;;;;;;5.43;3.60;;;;;;;;;;6167032;23;20442;-86
2020/12/30 06:42:44;;;;;;;5.93;3.92;;;;;;;;;;6191425;23;20017;-84
2020/12/30 06:45:12;;;;;;;7.05;4.28;;;;;;;;;;6193423;23;20016;-86
2020/12/30 06:47:59;;;;;;;6.30;4.05;;;;;;;;;;6192951;23;20017;-85
2020/12/30 06:50:26;;;;;;;8.93;4.90;;;;;;;;;;6185001;23;20013;-86
2020/12/30 06:52:52;;;;;;;23.65;12.55;;;;;;;;;;6192737;23;20512;-86
2020/12/30 06:55:43;;;;;;;47.70;25.10;;;;;;;;;;6166039;23;20028;-86
2020/12/30 06:58:10;;;;;;;47.08;23.38;;;;;;;;;;6192518;23;20025;-86
2020/12/30 07:00:38;;;;;;;39.53;20.00;;;;;;;;;;6191292;23;20013;-86
2020/12/30 07:03:14;;;;;;;37.30;19.02;;;;;;;;;;6192530;23;20017;-86
2020/12/30 07:05:41;;;;;;;33.08;17.27;;;;;;;;;;6164921;23;20326;-86
2020/12/30 07:08:08;;;;;;;46.42;18.30;;;;;;;;;;6165650;23;20020;-86
2020/12/30 07:10:40;;;;;;;39.67;19.13;;;;;;;;;;6193523;23;20017;-86
2020/12/30 07:13:08;;;;;;;23.38;12.57;;;;;;;;;;6192300;23;20017;-86
2020/12/30 07:15:35;;;;;;;20.02;10.95;;;;;;;;;;6164842;23;20012;-85
2020/12/30 07:18:04;;;;;;;19.55;10.50;;;;;;;;;;6164987;23;20028;-86
2020/12/30 07:20:39;;;;;;;18.90;10.18;;;;;;;;;;6190247;23;20020;-86
2020/12/30 07:23:06;;;;;;;20.10;11.50;;;;;;;;;;6190843;23;20064;-86
2020/12/30 07:25:33;;;;;;;16.42;10.07;;;;;;;;;;6192586;23;20071;-86
2020/12/30 07:28:00;;;;;;;17.75;9.48;;;;;;;;;;6162721;23;20029;-86
2020/12/30 07:30:27;;;;;;;16.67;9.65;;;;;;;;;;6165141;23;20442;-85
2020/12/30 07:32:54;;;;;;;15.68;9.98;;;;;;;;;;6139256;23;20024;-85
2020/12/30 07:35:21;;;;;;;18.83;11.20;;;;;;;;;;6165332;23;20024;-86
2020/12/30 07:37:49;;;;;;;22.15;12.38;;;;;;;;;;6165357;23;20036;-85
2020/12/30 07:40:15;;;;;;;23.75;13.40;;;;;;;;;;6190717;23;20017;-86
2020/12/30 07:42:41;;;;;;;22.63;13.65;;;;;;;;;;6164595;23;20085;-86
2020/12/30 07:45:09;;;;;;;26.92;15.32;;;;;;;;;;6164399;23;20017;-86
2020/12/30 07:47:35;;;;;;;21.98;13.82;;;;;;;;;;6165459;23;20021;-86
2020/12/30 07:50:03;;;;;;;22.85;13.70;;;;;;;;;;6188480;23;20020;-87
2020/12/30 07:52:29;;;;;;;15.63;10.50;;;;;;;;;;6190277;23;20108;-87
2020/12/30 07:54:55;;;;;;;21.75;13.90;;;;;;;;;;6189493;23;20084;-87
2020/12/30 07:57:21;;;;;;;28.77;19.00;;;;;;;;;;6188795;23;20073;-87
2020/12/30 07:59:48;;;;;;;25.65;17.55;;;;;;;;;;6189280;23;20008;-87
2020/12/30 08:02:15;;;;;;;27.58;18.42;;;;;;;;;;6139313;23;20052;-87
2020/12/30 08:04:42;;;;;;;27.30;17.95;;;;;;;;;;6187638;23;20017;-87
2020/12/30 08:07:12;;;;;;;23.85;17.58;;;;;;;;;;6163811;23;20021;-87
2020/12/30 08:09:39;;;;;;;18.38;12.43;;;;;;;;;;6189907;23;20017;-87
2020/12/30 08:12:06;;;;;;;14.95;10.25;;;;;;;;;;6190570;23;20093;-86
2020/12/30 08:14:34;;;;;;;13.00;8.57;;;;;;;;;;6139393;23;20331;-85
2020/12/30 08:17:01;;;;;;;12.57;8.60;;;;;;;;;;6190920;23;20041;-86
2020/12/30 08:19:29;;;;;;;11.40;7.28;;;;;;;;;;6188248;23;20019;-86
2020/12/30 08:22:19;;;;;;;;;;;;;;;;;;5173928;27;747071;-86
2020/12/30 08:24:46;;;;;;;8.02;4.72;;;;;;;;;;5198297;27;20402;-86
2020/12/30 08:27:13;;;;;;;12.02;5.20;;;;;;;;;;5196853;27;20408;-86
2020/12/30 08:29:40;;;;;;;8.15;4.85;;;;;;;;;;5198231;27;20177;-86
2020/12/30 08:32:13;;;;;;;9.30;5.35;;;;;;;;;;5199453;27;20038;-87
2020/12/30 08:34:42;;;;;;;14.70;9.07;;;;;;;;;;5179980;27;20126;-87
2020/12/30 08:37:11;;;;;;;11.23;7.57;;;;;;;;;;5199330;27;20046;-88
2020/12/30 08:39:43;;;;;;;13.07;8.32;;;;;;;;;;5199687;27;20049;-86
2020/12/30 08:45:54;;;;;;;8.77;5.20;;;;;;;;;;5587745;22;20058;-85
2020/12/30 08:48:21;;;;;;;13.55;6.00;;;;;;;;;;5113955;28;20500;-85
2020/12/30 08:50:49;;;;;;;10.35;5.97;;;;;;;;;;5113336;28;20488;-85
2020/12/30 08:53:15;;;;;;;8.10;4.57;;;;;;;;;;5112880;28;20641;-85
2020/12/30 08:55:42;;;;;;;7.15;4.13;;;;;;;;;;5112994;28;20128;-85
2020/12/30 08:58:08;;;;;;;7.57;4.72;;;;;;;;;;5113291;28;20048;-85
2020/12/30 09:00:35;;;;;;;8.23;4.78;;;;;;;;;;5113398;28;20101;-85
2020/12/30 09:03:11;;;;;;;7.55;4.53;;;;;;;;;;5114071;28;20128;-85
2020/12/30 09:05:37;;;;;;;8.18;4.50;;;;;;;;;;5112799;28;20052;-85
2020/12/30 09:08:10;;;;;;;9.15;5.93;;;;;;;;;;5098424;28;20083;-85
2020/12/30 09:10:36;;;;;;;8.50;4.65;;;;;;;;;;5113919;28;20044;-85
2020/12/30 09:13:11;;;;;;;6.05;4.53;;;;;;;;;;5112765;28;20104;-85
2020/12/30 09:15:37;;;;;;;7.25;4.63;;;;;;;;;;5072418;28;20392;-85
2020/12/30 09:18:04;;;;;;;7.43;5.10;;;;;;;;;;5094325;28;20048;-85
2020/12/30 09:20:31;;;;;;;8.27;5.07;;;;;;;;;;5086893;28;20644;-85
2020/12/30 09:22:59;;;;;;;8.82;5.57;;;;;;;;;;5072303;28;20059;-85
2020/12/30 09:25:26;;;;;;;10.07;5.93;;;;;;;;;;5072656;28;20098;-85
2020/12/30 09:27:52;;;;;;;10.60;5.82;;;;;;;;;;5088260;28;20048;-85
2020/12/30 09:30:23;;;;;;;11.50;7.50;;;;;;;;;;5093305;28;20143;-86
2020/12/30 09:32:49;;;;;;;11.52;7.57;;;;;;;;;;5079206;28;20052;-86
2020/12/30 09:35:16;;;;;;;11.65;7.70;;;;;;;;;;5063602;28;20447;-86
2020/12/30 09:37:51;;;;;;;12.60;7.25;;;;;;;;;;5072320;28;20454;-86
2020/12/30 09:40:17;;;;;;;12.30;7.45;;;;;;;;;;5062252;28;20041;-86
2020/12/30 09:42:44;;;;;;;12.30;7.57;;;;;;;;;;5068020;28;20067;-86
2020/12/30 09:45:12;;;;;;;13.00;8.00;;;;;;;;;;5072940;28;20041;-86
2020/12/30 09:47:39;;;;;;;12.52;7.68;;;;;;;;;;5071616;28;20045;-87
2020/12/30 09:50:07;;;;;;;20.10;10.35;;;;;;;;;;5069273;28;20382;-87
2020/12/30 09:52:35;;;;;;;18.27;10.82;;;;;;;;;;5065222;28;20067;-87
2020/12/30 09:55:01;;;;;;;19.88;10.57;;;;;;;;;;5066948;28;20456;-87
2020/12/30 09:57:27;;;;;;;13.50;7.05;;;;;;;;;;5078392;28;20044;-86
2020/12/30 09:59:54;;;;;;;12.05;7.32;;;;;;;;;;5076114;28;20053;-86
2020/12/30 10:02:20;;;;;;;9.00;6.03;;;;;;;;;;5075885;28;20067;-86
2020/12/30 10:04:47;;;;;;;11.18;6.10;;;;;;;;;;5066135;28;20056;-87
2020/12/30 10:07:13;;;;;;;11.13;6.63;;;;;;;;;;5076306;28;20074;-87
2020/12/30 10:09:39;;;;;;;8.70;6.18;;;;;;;;;;5057957;28;20060;-87
2020/12/30 10:12:05;;;;;;;13.13;8.55;;;;;;;;;;5057118;28;20601;-87
2020/12/30 10:14:31;;;;;;;30.52;21.83;;;;;;;;;;5056262;28;20052;-87
2020/12/30 10:16:57;;;;;;;25.58;16.70;;;;;;;;;;5065412;28;20044;-87
2020/12/30 10:19:25;;;;;;;19.80;12.02;;;;;;;;;;5061132;28;20044;-87
2020/12/30 10:21:52;;;;;;;13.45;8.35;;;;;;;;;;5061933;28;20386;-87
2020/12/30 10:24:18;;;;;;;9.98;7.60;;;;;;;;;;5095105;28;20124;-87
2020/12/30 10:26:44;;;;;;;11.30;6.70;;;;;;;;;;5095443;28;20048;-87
2020/12/30 10:29:10;;;;;;;7.75;5.50;;;;;;;;;;5095492;28;20052;-87
2020/12/30 10:31:36;;;;;;;10.70;5.15;;;;;;;;;;5095654;28;20055;-87
2020/12/30 10:34:03;;;;;;;7.88;5.70;;;;;;;;;;5095232;28;20055;-87
2020/12/30 10:36:32;;;;;;;9.25;5.32;;;;;;;;;;5094944;28;20044;-87
2020/12/30 10:39:00;;;;;;;10.52;6.05;;;;;;;;;;5095823;28;20054;-86
2020/12/30 10:41:26;;;;;;;9.38;6.65;;;;;;;;;;5101162;28;20389;-86
2020/12/30 10:43:52;;;;;;;20.63;13.52;;;;;;;;;;5102807;28;20058;-86
2020/12/30 10:46:20;;;;;;;17.30;10.77;;;;;;;;;;5096826;28;20051;-86
2020/12/30 10:48:46;;;;;;;13.95;9.10;;;;;;;;;;5096085;28;20056;-86
2020/12/30 10:51:14;;;;;;;25.00;15.35;;;;;;;;;;5096504;28;20048;-86
2020/12/30 10:53:40;;;;;;;10.43;6.03;;;;;;;;;;5096221;28;20102;-86
2020/12/30 10:56:09;;;;;;;8.38;4.70;;;;;;;;;;5096450;28;20056;-86
2020/12/30 10:58:35;;;;;;;6.05;4.47;;;;;;;;;;5096499;28;20079;-86
2020/12/30 11:01:01;;;;;;;7.50;4.03;;;;;;;;;;5095805;28;20135;-86
2020/12/30 11:03:26;;;;;;;7.47;4.72;;;;;;;;;;5096082;28;20447;-86
2020/12/30 11:05:58;;;;;;;7.57;3.90;;;;;;;;;;5096092;28;20090;-86
2020/12/30 11:08:24;;;;;;;6.20;4.38;;;;;;;;;;5095931;28;20407;-86
2020/12/30 11:10:49;;;;;;;10.27;5.32;;;;;;;;;;5080171;28;20451;-86
2020/12/30 11:13:16;;;;;;;5.78;3.70;;;;;;;;;;5075712;28;20044;-86
2020/12/30 11:15:42;;;;;;;8.48;3.70;;;;;;;;;;5074998;28;20044;-86
2020/12/30 11:18:08;;;;;;;4.55;2.97;;;;;;;;;;5073924;28;20455;-86
2020/12/30 11:20:34;;;;;;;6.30;3.75;;;;;;;;;;5075356;28;20131;-86
2020/12/30 11:23:00;;;;;;;7.97;4.10;;;;;;;;;;5077445;28;20060;-85
2020/12/30 11:25:26;;;;;;;5.43;3.17;;;;;;;;;;5076050;28;20044;-86
2020/12/30 11:27:52;;;;;;;4.82;3.22;;;;;;;;;;5076596;28;20111;-86
2020/12/30 11:30:19;;;;;;;5.20;3.42;;;;;;;;;;5075553;28;20132;-85
2020/12/30 11:32:46;;;;;;;8.02;3.70;;;;;;;;;;5075296;28;20048;-86
2020/12/30 11:35:12;;;;;;;5.80;4.55;;;;;;;;;;5073645;28;20056;-86
2020/12/30 11:37:38;;;;;;;7.07;3.95;;;;;;;;;;5076773;28;20037;-86
2020/12/30 11:40:05;;;;;;;6.65;3.95;;;;;;;;;;5076086;28;20048;-86
2020/12/30 11:42:31;;;;;;;7.00;3.63;;;;;;;;;;5075676;28;20048;-86
2020/12/30 11:44:57;;;;;;;5.15;3.40;;;;;;;;;;5073822;28;20079;-85
2020/12/30 11:47:24;;;;;;;5.20;3.30;;;;;;;;;;5075312;28;20044;-86
2020/12/30 11:49:51;;;;;;;5.22;3.85;;;;;;;;;;5077384;28;20404;-86
2020/12/30 11:52:17;;;;;;;5.75;3.65;;;;;;;;;;5079042;28;20044;-86
2020/12/30 11:54:43;;;;;;;7.57;4.40;;;;;;;;;;5078094;28;20040;-86
2020/12/30 11:57:10;;;;;;;4.57;3.00;;;;;;;;;;5077108;28;20059;-85
2020/12/30 11:59:36;;;;;;;5.45;3.70;;;;;;;;;;5077897;28;20492;-86
2020/12/30 12:02:03;;;;;;;5.00;3.40;;;;;;;;;;5078504;28;20131;-85
2020/12/30 12:04:31;;;;;;;6.38;3.22;;;;;;;;;;5077797;28;20052;-86
2020/12/30 12:06:58;;;;;;;10.00;5.97;;;;;;;;;;5078010;28;20389;-86
2020/12/30 12:09:24;;;;;;;9.35;5.82;;;;;;;;;;5077759;28;20052;-86
2020/12/30 12:11:50;;;;;;;5.88;2.78;;;;;;;;;;5078218;28;20403;-86
2020/12/30 12:14:16;;;;;;;6.25;2.75;;;;;;;;;;5077181;28;20048;-85
2020/12/30 12:16:49;;;;;;;4.55;2.47;;;;;;;;;;5074280;28;20056;-86
2020/12/30 12:19:16;;;;;;;4.35;2.60;;;;;;;;;;5075292;28;20056;-86
2020/12/30 12:21:43;;;;;;;5.50;2.47;;;;;;;;;;5077110;28;20044;-86
2020/12/30 12:24:10;;;;;;;4.20;2.38;;;;;;;;;;5075979;28;20052;-86
2020/12/30 12:26:37;;;;;;;6.53;2.47;;;;;;;;;;5076209;28;20056;-85
2020/12/30 12:29:20;;;;;;;5.65;2.67;;;;;;;;;;5073625;28;20060;-86
2020/12/30 12:31:56;;;;;;;5.53;2.50;;;;;;;;;;5069151;28;20049;-86
2020/12/30 12:34:43;;;;;;;5.05;2.33;;;;;;;;;;5074827;28;20048;-86
2020/12/30 12:37:12;;;;;;;5.75;2.40;;;;;;;;;;5076507;28;20048;-86
2020/12/30 12:39:41;;;;;;;3.20;1.85;;;;;;;;;;5074566;28;20047;-85
2020/12/30 12:42:10;;;;;;;4.95;2.28;;;;;;;;;;5075587;28;20044;-85
2020/12/30 12:44:40;;;;;;;3.10;1.98;;;;;;;;;;5073710;28;20048;-86
2020/12/30 12:47:13;;;;;;;3.78;2.20;;;;;;;;;;5074210;28;20067;-86
2020/12/30 12:49:47;;;;;;;3.67;2.10;;;;;;;;;;5078427;28;20116;-85
2020/12/30 12:55:11;;;;;;;4.25;2.20;;;;;;;;;;5079252;28;20056;-85
2020/12/30 12:57:40;;;;;;;4.57;2.10;;;;;;;;;;5075711;28;20129;-85
2020/12/30 13:00:07;;;;;;;4.40;2.47;;;;;;;;;;5078650;28;20437;-85
2020/12/30 13:02:33;;;;;;;3.90;2.20;;;;;;;;;;5077547;28;20053;-85
2020/12/30 13:05:00;;;;;;;6.40;2.35;;;;;;;;;;5077806;28;20087;-85
2020/12/30 13:07:32;;;;;;;4.47;2.05;;;;;;;;;;5077691;28;20105;-85
2020/12/30 13:10:04;;;;;;;4.38;2.47;;;;;;;;;;5079211;28;20052;-85
2020/12/30 13:13:00;;;;;;;3.55;2.10;;;;;;;;;;5057998;28;20041;-85
2020/12/30 13:18:03;;;;;;;10.23;5.75;;;;;;;;;;5055583;28;20041;-87
2020/12/30 13:20:29;;;;;;;7.15;3.25;;;;;;;;;;5059026;28;20087;-87
2020/12/30 13:22:55;;;;;;;5.30;3.33;;;;;;;;;;5058687;28;20131;-87
2020/12/30 13:25:21;;;;;;;5.00;3.38;;;;;;;;;;5061350;28;20269;-85
2020/12/30 13:27:47;;;;;;;6.13;3.60;;;;;;;;;;5026598;28;20049;-86
2020/12/30 13:30:14;;;;;;;3.83;2.50;;;;;;;;;;5060056;28;20051;-87
2020/12/30 13:32:40;;;;;;;5.32;3.53;;;;;;;;;;5043000;28;20045;-87
2020/12/30 13:35:06;;;;;;;5.70;3.65;;;;;;;;;;5041819;28;20045;-87
2020/12/30 13:37:32;;;;;;;8.05;4.68;;;;;;;;;;5041958;28;20083;-87
2020/12/30 13:39:58;;;;;;;7.45;3.63;;;;;;;;;;5043072;28;20140;-85
2020/12/30 13:42:24;;;;;;;6.30;3.72;;;;;;;;;;5061205;28;20461;-84
2020/12/30 13:44:50;;;;;;;6.05;4.13;;;;;;;;;;5061555;28;20037;-85
2020/12/30 13:47:16;;;;;;;10.07;5.07;;;;;;;;;;5042860;28;20045;-87
2020/12/30 13:49:42;;;;;;;7.03;2.78;;;;;;;;;;5025118;28;20091;-87
2020/12/30 13:52:08;;;;;;;11.32;6.70;;;;;;;;;;5059749;28;20045;-87
2020/12/30 13:54:35;;;;;;;6.78;3.20;;;;;;;;;;5025689;28;20045;-87
2020/12/30 13:57:02;;;;;;;6.43;2.63;;;;;;;;;;5041539;28;20049;-87
2020/12/30 13:59:28;;;;;;;3.20;2.10;;;;;;;;;;5060639;28;20056;-85
2020/12/30 14:01:55;;;;;;;15.77;3.05;;;;;;;;;;5057706;28;20155;-83
2020/12/30 14:04:21;;;;;;;5.45;2.75;;;;;;;;;;5045570;28;20484;-84
2020/12/30 14:06:47;;;;;;;3.92;1.98;;;;;;;;;;5047337;28;20140;-87
2020/12/30 14:09:13;;;;;;;4.47;2.60;;;;;;;;;;5018977;28;20056;-83
2020/12/30 14:11:39;;;;;;;4.00;1.95;;;;;;;;;;5035248;28;20128;-84
2020/12/30 14:14:06;;;;;;;6.28;1.90;;;;;;;;;;5049425;28;20052;-83
2020/12/30 14:16:32;;;;;;;3.10;1.50;;;;;;;;;;5037123;28;20056;-85
2020/12/30 14:18:58;;;;;;;3.78;1.70;;;;;;;;;;5049555;28;20060;-83
2020/12/30 14:21:24;;;;;;;4.30;2.30;;;;;;;;;;5033062;28;20461;-84
2020/12/30 14:23:50;;;;;;;6.05;3.10;;;;;;;;;;5036194;28;20087;-84
2020/12/30 14:26:21;;;;;;;5.93;3.35;;;;;;;;;;5035971;28;20107;-84
2020/12/30 14:28:47;;;;;;;4.97;2.40;;;;;;;;;;5036673;28;20054;-85
2020/12/30 14:31:15;;;;;;;4.13;1.98;;;;;;;;;;5036054;28;20042;-85
2020/12/30 14:33:41;;;;;;;5.88;2.75;;;;;;;;;;5033946;28;20049;-85
2020/12/30 14:36:07;;;;;;;5.80;2.25;;;;;;;;;;5038316;28;20048;-84
2020/12/30 14:38:33;;;;;;;6.65;2.58;;;;;;;;;;5031191;28;20050;-83
2020/12/30 14:40:59;;;;;;;4.10;2.17;;;;;;;;;;5024273;28;20046;-83
2020/12/30 14:43:25;;;;;;;4.97;2.70;;;;;;;;;;5015868;28;20050;-83
2020/12/30 14:45:51;;;;;;;5.20;3.10;;;;;;;;;;5029861;28;20060;-83
2020/12/30 14:48:17;;;;;;;4.50;2.50;;;;;;;;;;5036009;28;20466;-83